Terminal Aerodrome Forecast
Issued by NWS

Home | Current Version | Previous Version | Text Only | Print | Product List | Glossary On
Versions: 1 2 3 4 5 6 7 8 9 10 11 12 13 14 15
482
FTUS41 KCAR 260324 AAA
TAFBHB
TAF AMD
KBHB 260324Z 2603/2624 VRB03KT 6SM -SHRA BR BKN008 OVC035
      TEMPO 2603/2606 3SM TSRA BR OVC008CB
     FM260600 22006KT 3/4SM BR VCSH OVC003
     FM261000 25006KT 1SM BR VCSH OVC005
     FM261200 25006KT P6SM VCSH OVC015
     FM261400 29006KT P6SM VCSH BKN050
     FM262000 31008KT P6SM BKN050=

USA.gov is the U.S. government's official web portal to all federal, state and local government web resources and services.